Terminal Aerodrome Forecast
Issued by NWS Cleveland, OH

Home | Current Version | Previous Version | Text Only | Print | Product List | Glossary On
Versions: 1 2 3 4 5 6 7 8 9 10 11 12 13 14 15 16 17 18 19 20 21 22 23 24 25 26 27 28 29 30 31 32
000
FTUS41 KCLE 240837 AAA
TAFYNG
TAF AMD
KYNG 240837Z 2409/2506 31008KT 5SM -RASN OVC006
      TEMPO 2409/2410 2SM -SN BKN005
     FM241000 28008KT 2SM -SN OVC006
      TEMPO 2412/2413 4SM -SN OVC005
     FM241300 30009KT P6SM OVC008
     FM242000 27009KT P6SM OVC015=

USA.gov is the U.S. government's official web portal to all federal, state and local government web resources and services.